createdAt,value
2023-03-28T00:04:14.073Z,2.50
2023-03-28T00:09:16.872Z,2.57
2023-03-28T00:14:18.429Z,2.56
2023-03-28T00:19:20.725Z,2.53
2023-03-28T00:24:22.749Z,2.59
2023-03-28T00:29:26.130Z,2.53
2023-03-28T00:34:27.816Z,2.55
2023-03-28T00:39:29.673Z,2.50
2023-03-28T00:44:43.485Z,2.51
2023-03-28T00:49:49.597Z,2.48
2023-03-28T00:54:53.737Z,2.43
2023-03-28T00:59:56.605Z,2.47
2023-03-28T01:05:03.839Z,2.36
2023-03-28T01:10:08.038Z,2.37
2023-03-28T01:15:10.941Z,2.43
2023-03-28T01:20:40.041Z,2.43
2023-03-28T01:25:41.728Z,2.36
2023-03-28T01:31:16.752Z,2.35
2023-03-28T01:37:10.757Z,2.32
2023-03-28T01:42:42.542Z,2.26
2023-03-28T01:47:53.763Z,2.18
2023-03-28T01:53:10.724Z,2.13
2023-03-28T01:58:49.982Z,2.14
2023-03-28T02:04:07.372Z,2.13
2023-03-28T02:09:33.090Z,2.15
2023-03-28T02:14:49.305Z,2.07
2023-03-28T02:20:28.040Z,2.11
2023-03-28T02:25:49.821Z,2.09
2023-03-28T02:31:07.258Z,2.13
2023-03-28T02:36:33.388Z,2.18
2023-03-28T02:41:55.430Z,2.24
2023-03-28T02:47:15.810Z,2.15
2023-03-28T02:52:52.390Z,2.20
2023-03-28T02:58:18.112Z,2.26
2023-03-28T03:03:20.340Z,2.30
2023-03-28T03:08:24.984Z,2.26
2023-03-28T03:13:29.404Z,2.27
2023-03-28T03:18:32.444Z,2.28
2023-03-28T03:23:34.123Z,2.30
2023-03-28T03:28:35.794Z,2.24
2023-03-28T03:33:41.506Z,2.21
2023-03-28T03:38:45.381Z,2.24
2023-03-28T03:43:51.884Z,2.15
2023-03-28T03:48:53.724Z,2.18
2023-03-28T03:53:58.084Z,2.16
2023-03-28T03:59:07.995Z,2.16
2023-03-28T04:04:13.138Z,2.22
2023-03-28T04:09:35.068Z,2.15
2023-03-28T04:14:38.524Z,2.16
2023-03-28T04:19:58.772Z,2.28
2023-03-28T04:25:08.676Z,2.26
2023-03-28T04:30:18.130Z,2.27
2023-03-28T04:35:51.212Z,2.29
2023-03-28T04:40:57.806Z,2.45
2023-03-28T04:46:19.955Z,2.51
2023-03-28T04:51:22.351Z,2.56
2023-03-28T04:56:24.517Z,2.61
2023-03-28T05:01:27.474Z,2.57
2023-03-28T05:07:13.048Z,2.67
2023-03-28T05:12:15.950Z,2.66
2023-03-28T05:17:33.327Z,2.68
2023-03-28T05:23:02.676Z,2.82
2023-03-28T05:28:06.188Z,2.86
2023-03-28T05:33:14.076Z,2.89
2023-03-28T05:38:16.902Z,3.10
2023-03-28T05:43:25.740Z,3.21
2023-03-28T05:48:28.341Z,3.34
2023-03-28T05:53:29.996Z,3.44
2023-03-28T05:58:34.465Z,3.64
2023-03-28T06:03:40.028Z,3.77
2023-03-28T06:08:42.193Z,3.76
2023-03-28T06:13:45.207Z,4.07
2023-03-28T06:18:48.444Z,4.26
2023-03-28T06:23:50.316Z,4.41
2023-03-28T06:28:59.367Z,4.45
2023-03-28T06:34:12.437Z,4.40
2023-03-28T06:39:27.831Z,4.48
2023-03-28T06:44:32.601Z,4.32
2023-03-28T06:49:57.046Z,4.56
2023-03-28T06:55:09.347Z,4.86
2023-03-28T07:00:16.142Z,5.06
2023-03-28T07:05:44.413Z,5.19
2023-03-28T07:10:48.618Z,5.15
2023-03-28T07:16:06.673Z,5.48
2023-03-28T07:21:18.458Z,5.42
2023-03-28T07:26:20.310Z,5.26
2023-03-28T07:31:22.489Z,5.41
2023-03-28T07:36:26.494Z,5.57
2023-03-28T07:41:30.574Z,5.30
2023-03-28T07:46:32.348Z,5.26
2023-03-28T07:51:34.297Z,5.28
2023-03-28T07:56:35.982Z,5.26
2023-03-28T08:01:53.187Z,5.29
2023-03-28T08:06:55.331Z,5.26
2023-03-28T08:11:59.744Z,5.44
2023-03-28T08:17:01.696Z,5.36
2023-03-28T08:22:05.669Z,5.36
2023-03-28T08:27:15.770Z,4.81
2023-03-28T08:32:20.511Z,4.75
2023-03-28T08:37:22.643Z,5.15
2023-03-28T08:42:39.085Z,5.85
2023-03-28T08:48:10.799Z,5.90
2023-03-28T08:53:22.248Z,5.94
2023-03-28T08:58:28.340Z,5.62
2023-03-28T09:03:33.226Z,5.73
2023-03-28T09:08:38.339Z,6.11
2023-03-28T09:14:00.529Z,6.44
2023-03-28T09:19:44.614Z,6.72
2023-03-28T09:25:30.710Z,6.22
2023-03-28T09:30:35.359Z,6.28
2023-03-28T09:35:39.656Z,5.49
2023-03-28T09:40:46.807Z,5.24
2023-03-28T09:46:06.576Z,5.54
2023-03-28T09:51:25.500Z,6.18
2023-03-28T09:56:33.161Z,6.54
2023-03-28T10:02:27.911Z,7.15
2023-03-28T10:07:45.569Z,7.13
2023-03-28T10:12:58.928Z,7.01
2023-03-28T10:18:05.051Z,7.45
2023-03-28T10:23:13.760Z,7.03
2023-03-28T10:28:29.277Z,6.71
2023-03-28T10:33:40.436Z,7.43
2023-03-28T10:38:57.498Z,6.98
2023-03-28T10:44:31.941Z,7.50
2023-03-28T10:49:52.694Z,6.64
2023-03-28T10:54:58.251Z,7.62
2023-03-28T11:00:23.582Z,7.65
2023-03-28T11:06:08.200Z,7.80
2023-03-28T11:11:30.651Z,8.55
2023-03-28T11:16:58.879Z,9.03
2023-03-28T11:23:05.091Z,9.59
2023-03-28T11:28:41.176Z,9.40
2023-03-28T11:33:54.393Z,9.67
2023-03-28T11:39:11.949Z,8.86
2023-03-28T11:44:30.315Z,8.66
2023-03-28T11:49:41.853Z,8.85
2023-03-28T11:55:15.172Z,8.45
2023-03-28T12:00:33.603Z,9.34
2023-03-28T12:05:48.807Z,9.24
2023-03-28T12:10:57.655Z,8.72
2023-03-28T12:16:27.145Z,8.96
2023-03-28T12:21:43.208Z,8.80
2023-03-28T12:26:55.872Z,8.99
2023-03-28T12:32:40.692Z,8.77
2023-03-28T12:38:08.483Z,8.83
2023-03-28T12:43:14.867Z,9.60
2023-03-28T12:48:29.532Z,9.75
2023-03-28T12:53:33.315Z,10.13
2023-03-28T12:58:36.494Z,9.89
2023-03-28T13:04:15.531Z,9.48
2023-03-28T13:10:14.754Z,8.84
2023-03-28T13:15:16.294Z,8.59
2023-03-28T13:20:18.008Z,8.43
2023-03-28T13:25:33.257Z,8.48
2023-03-28T13:30:35.350Z,9.61
2023-03-28T13:35:49.782Z,9.80
2023-03-28T13:41:09.832Z,8.78
2023-03-28T13:46:41.391Z,9.16
2023-03-28T13:51:47.779Z,8.50
2023-03-28T13:56:52.002Z,8.48
2023-03-28T14:01:56.466Z,8.24
2023-03-28T14:06:59.389Z,8.21
2023-03-28T14:12:05.515Z,8.49
2023-03-28T14:17:13.484Z,8.45
2023-03-28T14:22:21.490Z,7.94
2023-03-28T14:27:44.676Z,8.08
2023-03-28T14:32:59.075Z,8.35
2023-03-28T14:38:13.942Z,7.99
2023-03-28T14:43:31.235Z,7.93
2023-03-28T14:48:34.501Z,8.27
2023-03-28T14:53:42.268Z,8.44
2023-03-28T14:58:47.150Z,8.03
2023-03-28T15:03:57.718Z,7.96
2023-03-28T15:09:04.686Z,8.09
2023-03-28T15:14:24.674Z,7.96
2023-03-28T15:19:34.476Z,7.66
2023-03-28T15:24:38.169Z,7.60
2023-03-28T15:29:40.301Z,7.72
2023-03-28T15:34:56.242Z,7.78
2023-03-28T15:40:21.598Z,7.72
2023-03-28T15:45:36.177Z,7.95
2023-03-28T15:50:39.118Z,7.96
2023-03-28T15:55:42.354Z,7.84
2023-03-28T16:00:46.758Z,7.65
2023-03-28T16:06:01.926Z,7.56
2023-03-28T16:11:23.276Z,7.49
2023-03-28T16:17:07.774Z,7.48
2023-03-28T16:22:25.750Z,7.34
2023-03-28T16:27:30.641Z,7.34
2023-03-28T16:32:32.266Z,7.10
2023-03-28T16:37:33.937Z,7.04
2023-03-28T16:42:35.623Z,7.01
2023-03-28T16:47:38.887Z,7.00
2023-03-28T16:52:41.162Z,6.86
2023-03-28T16:57:43.276Z,6.70
2023-03-28T17:02:49.023Z,6.65
2023-03-28T17:07:50.857Z,6.68
2023-03-28T17:12:52.589Z,6.67
2023-03-28T17:17:54.468Z,6.35
2023-03-28T17:22:56.484Z,6.30
2023-03-28T17:27:58.449Z,6.12
2023-03-28T17:33:00.137Z,6.02
2023-03-28T17:38:02.234Z,5.96
2023-03-28T17:43:04.195Z,5.90
2023-03-28T17:48:06.243Z,5.80
2023-03-28T17:53:08.200Z,5.69
2023-03-28T17:58:09.853Z,5.69
2023-03-28T18:03:11.915Z,5.66
2023-03-28T18:08:31.012Z,5.67
2023-03-28T18:13:33.233Z,5.43
2023-03-28T18:18:35.048Z,5.40
2023-03-28T18:23:37.051Z,5.31
2023-03-28T18:28:38.794Z,5.20
2023-03-28T18:33:42.149Z,5.25
2023-03-28T18:38:44.464Z,5.13
2023-03-28T18:43:46.335Z,5.04
2023-03-28T18:48:47.933Z,4.83
2023-03-28T18:53:49.723Z,4.29
2023-03-28T18:58:51.473Z,4.23
2023-03-28T19:03:55.318Z,4.33
2023-03-28T19:08:57.263Z,4.42
2023-03-28T19:13:59.106Z,4.36
2023-03-28T19:19:01.064Z,4.31
2023-03-28T19:24:02.684Z,4.24
2023-03-28T19:29:04.297Z,4.20
2023-03-28T19:34:07.868Z,4.31
2023-03-28T19:39:09.622Z,4.11
2023-03-28T19:44:11.255Z,4.05
2023-03-28T19:49:15.309Z,3.93
2023-03-28T19:54:17.080Z,3.90
2023-03-28T19:59:18.866Z,3.72
2023-03-28T20:04:20.989Z,3.63
2023-03-28T20:09:24.189Z,3.65
2023-03-28T20:14:26.262Z,3.52
2023-03-28T20:19:28.916Z,3.52
2023-03-28T20:24:30.747Z,3.34
2023-03-28T20:29:35.981Z,3.06
2023-03-28T20:34:38.425Z,3.07
2023-03-28T20:39:41.782Z,3.04
2023-03-28T20:44:43.744Z,3.07
2023-03-28T20:49:46.162Z,2.95
2023-03-28T20:54:47.895Z,2.82
2023-03-28T20:59:49.522Z,2.68
2023-03-28T21:04:51.683Z,2.43
2023-03-28T21:09:54.684Z,2.24
2023-03-28T21:14:56.574Z,2.14
2023-03-28T21:19:59.261Z,2.03
2023-03-28T21:25:01.671Z,1.81
2023-03-28T21:30:07.777Z,1.65
2023-03-28T21:35:10.287Z,1.58
2023-03-28T21:40:12.174Z,1.48
2023-03-28T21:45:14.042Z,1.45
2023-03-28T21:50:16.573Z,1.39
2023-03-28T21:55:18.354Z,1.30
2023-03-28T22:00:20.770Z,1.26
2023-03-28T22:05:29.120Z,1.20
2023-03-28T22:10:31.841Z,1.08
2023-03-28T22:15:33.777Z,0.98
2023-03-28T22:20:37.392Z,0.69
2023-03-28T22:25:39.193Z,0.59
2023-03-28T22:30:41.543Z,0.58
2023-03-28T22:35:43.278Z,0.60
2023-03-28T22:40:44.955Z,0.66
2023-03-28T22:45:47.375Z,0.67
2023-03-28T22:50:50.341Z,0.62
2023-03-28T22:55:52.008Z,0.65
2023-03-28T23:00:54.858Z,0.62
2023-03-28T23:06:01.658Z,0.58
2023-03-28T23:11:04.064Z,0.46
2023-03-28T23:16:07.187Z,0.34
2023-03-28T23:21:09.079Z,0.22
2023-03-28T23:26:10.687Z,0.10
2023-03-28T23:31:12.858Z,0.03
2023-03-28T23:36:15.547Z,-0.01
2023-03-28T23:41:17.248Z,-0.07
2023-03-28T23:46:18.891Z,-0.11
2023-03-28T23:51:20.797Z,-0.17
2023-03-28T23:56:23.925Z,-0.14
